Nearby METAR Reports

 

KDVT - Phoenix/Deer Vly, Arizona, USA
Distance from station: SW 14mi, 22km
Updated: Thu, 02-Jul-2020 5:53am MST
Clear
Clear
 Wind from NNE
Wind: NNE 10 mph , 17 km/h
Temperature: 75°F , 24°C
Dew Point: 30°F , -1°C
Humidity: 19%
Barometer: 29.89 inHg , 1012.2 hPa
Clouds: Clear
Visibility: 10 miles , 16 km
2020/07/02 12:53 KDVT 021253Z 03009KT 10SM CLR 24/M01 A2989 RMK AO2 SLP095 T02441011
KSDL - Scottsdale, Arizona, USA
Distance from station: S 15mi, 23km
Updated: Thu, 02-Jul-2020 4:53am MST
Clear
Clear
 Wind from SSE
Wind: SSE 5 mph , 7 km/h
Temperature: 79°F , 26°C
Dew Point: 37°F , 3°C
Humidity: 23%
Barometer: 29.88 inHg , 1011.9 hPa
Clouds: Clear
Visibility: 10 miles , 16 km
2020/07/02 11:53 KSDL 021153Z AUTO 16004KT 10SM CLR 26/03 A2988 RMK AO2 SLP090 T02610028 10328 20261 53004
KFFZ - Mesa/Falcon Fld, Arizona, USA
Distance from station: SSE 27mi, 44km
Updated: Thu, 02-Jul-2020 5:54am MST
Clear
Clear
 Wind from NNE
Wind: NNE 3 mph , 6 km/h
Temperature: 79°F , 26°C
Dew Point: 37°F , 3°C
Humidity: 23%
Barometer: 29.89 inHg , 1012.2 hPa
Clouds: Clear
Visibility: 10 miles , 16 km
2020/07/02 12:54 KFFZ 021254Z AUTO 03003KT 10SM CLR 26/03 A2989 RMK AO2 SLP095 T02610033
 
KPHX - Phoenix/Sky Hrbr, Arizona, USA
Distance from station: SSW 28mi, 45km
Updated: Thu, 02-Jul-2020 5:51am MST
Partly cloudy
Partly cloudy
 Wind from ESE
Wind: ESE 6 mph , 9 km/h
Temperature: 82°F , 28°C
Dew Point: 43°F , 6°C
Humidity: 25%
Barometer: 29.86 inHg , 1011.2 hPa
Clouds: Partly cloudy
Visibility: 8 miles , 13 km
Cloud details: Few Clouds 12000 ft
Partly cloudy 14000 ft
Partly cloudy 18000 ft
2020/07/02 12:51 KPHX 021251Z 11005KT 8SM FEW120 SCT140 SCT180 28/06 A2986 RMK AO2 SLP089 T02780056
KGEU - Glendale, Arizona, USA
Distance from station: SW 31mi, 49km
Updated: Thu, 02-Jul-2020 5:47am MST
Few Clouds
Few Clouds
 Wind from calm
Wind: Calm
Temperature: 77°F , 25°C
Dew Point: 34°F , 1°C
Humidity: 21%
Barometer: 29.88 inHg , 1011.9 hPa
Clouds: Few Clouds
Visibility: 10 miles , 16 km
Cloud details: Few Clouds 15000 ft
2020/07/02 12:47 KGEU 021247Z 00000KT 10SM FEW150 25/01 A2988 RMK FIRST
KLUF - Luke Afb/Glendal, Arizona, USA
Distance from station: SW 34mi, 55km
Updated: Thu, 02-Jul-2020 4:58am MST
Clear
Clear
 Wind from NW
Wind: NW 5 mph , 7 km/h
Temperature: 77°F , 25°C
Dew Point: 36°F , 2°C
Humidity: 22%
Barometer: 29.84 inHg , 1010.5 hPa
Clouds: Clear
Visibility: 10 miles , 16 km
2020/07/02 11:58 KLUF 021158Z AUTO 31004KT 10SM CLR 25/02 A2984 RMK AO2 SLP090 T02470015 10320 20246 53006 $
 
KGYR - Goodyear Municip, Arizona, USA
Distance from station: SW 39mi, 63km
Updated: Thu, 02-Jul-2020 5:47am MST
Partly cloudy
Partly cloudy
 Wind from N
Wind: N 7 mph , 11 km/h
Temperature: 79°F , 26°C
Dew Point: 36°F , 2°C
Humidity: 21%
Barometer: 29.86 inHg , 1011.2 hPa
Clouds: Partly cloudy
Visibility: 10 miles , 16 km
Cloud details: Few Clouds 11000 ft
Partly cloudy 16000 ft
2020/07/02 12:47 KGYR 021247Z 01006KT 10SM FEW110 SCT160 26/02 A2986 RMK FIRST
KIWA - Chandler/Mesa, Arizona, USA
Distance from station: SSE 39mi, 63km
Updated: Thu, 02-Jul-2020 5:50am MST
Partly cloudy
Partly cloudy
 Wind from E
Wind: E 8 mph , 13 km/h
Temperature: 75°F , 24°C
Dew Point: 34°F , 1°C
Humidity: 22%
Barometer: 29.91 inHg , 1012.9 hPa
Clouds: Partly cloudy
Visibility: 10 miles , 16 km
Cloud details: Partly cloudy 10000 ft
2020/07/02 12:50 KIWA 021250Z 10007KT 10SM SCT100 24/01 A2991
KPAN - Payson, Arizona, USA
Distance from station: NE 44mi, 70km
Updated: Thu, 02-Jul-2020 5:55am MST
Clear
Clear
 Wind from calm
Wind: Calm
Temperature: 63°F , 17°C
Dew Point: 30°F , -1°C
Humidity: 30%
Barometer: 30.16 inHg , 1021.3 hPa
Clouds: Clear
Visibility: 10 miles , 16 km
2020/07/02 12:55 KPAN 021255Z AUTO 00000KT 10SM CLR 17/M01 A3016 RMK AO2